Ratings

ID Full Name Model Yacht Namesort descending Spinnaker Rating Non-spin. Rating Base Rating Genoa Spin. Adj. Genoa Non-spin. Adj. Mainsail Adj. Spin. Pole Adj. Asym Adj. Mast Adj. Prop. Adj. Misc. Adj. Yacht Club Certificate Expires Status
12176 Richard Levine Nelson/Marek 40 Stars & Stripes 66 87 63 3 3 0 0 0 0 0 0 Newport Yacht Club 4/30/2018 Published
12543 Colby, Jack J92s Sting 96 114 96 0 0 0 0 0 0 0 0 4/30/2018 Published
12459 Lambert, Norm Oday 34 IK 1-184 Stormin Norman 153 175 150 0 0 0 0 0 0 0 0 West Bay YC 4/30/2018 Published
12570 Adam Langerman Herreshoff 33 Streaker 97 109 87 6 7 0 0 5 0 0 -4 4/30/2018 Published
12465 Pelkey, David R. Etchells 22 ODR Strega 129 141 129 0 0 0 0 0 0 0 0 Rhode Island YC 4/30/2018 Published
12181 Meyer, Louis Hinckley Pilot 35 Strummer 205 219 195 6 7 0 0 7 0 -3 -3 Stonington YC/CCA 4/30/2018 Published
12539 James Langston Soling Strøm 156 168 156 0 0 0 0 0 0 0 0 Sail Newport 4/30/2018 Published
12296 Cornwall, James J/35 C SD Sugaree 118 138 111 4 4 0 0 0 0 0 0 Rhode Island YC 4/30/2018 Published
12377 Westbrook, John Ranger 26 Sugarfoot 205 228 198 4 4 0 0 0 0 0 0 Wickford YC 4/30/2018 Published
12421 Tripp Alyn Scampi 30-2 Summer Wind 177 199 183 -3 -3 0 0 0 0 -6 0 Coasters' Harbor YC 4/30/2018 Published
12392 Natalizia, David Jeanneau 39 I Sun Odyssey Summerwind 108 133 87 6 12 0 0 0 0 12 0 Rhode Island YC 4/30/2018 Published
12419 Jones, Robert G. Jr. Sun 34 Sundance 135 158 129 3 3 0 0 0 0 0 0 Edgewood YC 4/30/2018 Published
12397 Joseph Ney Frers 36 Sweet Rocket 96 117 93 0 0 0 0 0 0 0 0 Newport YC 4/30/2018 Published
12208 Mc Ginn, Michael Beneteau Oceanis 351 Swept Away 165 183 153 1 1 3 0 2 0 0 0 Rhode Island YC 4/30/2018 Published
12268 Whitney, Bob Sonar Swizzle Stick 183 199 180 0 0 0 0 0 0 0 0 Newport YC 4/30/2018 Published
12485 Allison Fleitas Pearson 36 Syren 156 178 141 6 6 0 0 0 0 6 0 CYC & NYYC 4/30/2018 Published
12575 Richard Pedone Tartan 41 S&S Talisman 111 125 102 0 0 0 0 9 0 0 0 Hingham 4/30/2018 Published
12327 Morash, Gregg Sabre 38 1 102 DK Tamanoa 122 144 114 5 5 0 0 0 0 0 0 Tiverton YC 4/30/2018 Published
12534 Roszkowski, Joseph J. C&C 30 507+ Tamerlane II 187 209 177 4 4 0 0 0 0 0 0 2000 Club & E.G.Y.C. 4/30/2018 Published
12362 Gregg, Jack J/122 ODR Tarahumara 36 55 36 0 0 0 0 0 0 0 0 CCA 4/30/2018 Published
12565 Staats, Jeffrey L. Pearson Ensign ODR Temptation 255 268 255 0 0 0 0 0 0 0 0 Newport YC 4/30/2018 Published
12263 Oakcliff Sailing Ker 50 Temptation Oakcliff -45 -52 -39 0 0 0 0 -6 0 0 0 Oakcliff Sailing 4/30/2018 Provisional
12318 Gowell, Jay Taylor 41 Temptress 51 71 51 0 0 0 0 0 0 0 CCA. NYYC, Conanicut 4/30/2018 Published
12349 Iriye, Robert & Marie J/24 Tenacious 174 193 174 0 0 0 0 0 0 0 Newport YC 4/30/2018 Published
12622 Mark Masiello Friendship 40 Tenderly 117 131 108 0 0 0 0 6 0 0 0 4/30/2018 Published
12494 Walsh, Jonathan S2 9.2 A Tendresse II 186 207 189 1 1 0 -7 0 0 0 0 Bristol Yacht Club 4/30/2018 Published
12409 Ferguson. Bruce C. Nonsuch 36 Terabithia 174 0 177 0 0 0 0 0 0 0 -3 Wickford YC 4/30/2018 Published
12398 Lincoln Mossop Club Swan 42 The Cat Came Back -6 15 -6 0 0 0 0 0 0 0 0 New York YC Jamestown YC 4/30/2018 Published
12438 Danial Ferreira Pearson 28-2 The Flying Wasp 199 222 183 6 8 1 0 0 0 6 0 Narragansett Terrace Yacht Club 4/30/2018 Published
12410 Alfred Nazareth III Cal 25 MKII Therapy 231 253 222 6 6 0 0 0 0 0 0 Rhode Island 4/30/2018 Published
11528 Hause, John Tartan Ten Thistle 132 154 126 6 12 0 0 0 0 0 Barrington YC 4/30/2018 Published
12491 Thorsen, Kenneth R. Pearson 28-1 30+ Thora 196 217 195 1 1 0 0 0 0 0 0 East Greenwich 4/30/2018 Published
12458 Choiniere, Brian N. Hunter 310 Three Sheets 174 198 162 6 12 0 0 0 0 0 0 Rhode Island YC 4/30/2018 Published
12474 Kineke, Charles Peterson 34 Thunder 120 143 120 0 0 0 0 0 0 0 0 EGYC 4/30/2018 Published
12355 Horton, Bob Scampi 30 Tigger 171 193 177 0 0 0 0 0 0 0 -6 Spar Island YC 4/30/2018 Published
12473 Fadden, Robert L. Metalmast 30 Time Bandit 163 180 156 1 1 0 0 0 0 0 0 Jamestown YC 4/30/2018 Published
12506 Darlington, Fred J/105 ODR Tonto 93 111 93 0 0 0 0 0 0 0 0 East Greenwich YC 4/30/2018 Published
12462 Mike, Dreese Class 40 (Akilaria 3) Toothface2 -9 6 -9 0 0 0 0 0 0 0 0 Constitution 4/30/2018 Published
12450 Lengel, James G. Alerion Express 38 Top Cat 135 153 129 0 0 0 0 0 0 0 0 Bristol YC 4/30/2018 Published
12260 Berthon USA Rustler 24 Tressa 273 287 270 0 0 0 0 0 0 0 0 Conanicut YC 4/30/2018 Published
12274 Daniel Scanlon Dufour 40e Trinity 67 84 66 4 4 0 -3 0 0 0 0 EGYC 4/30/2018 Published
12316 Collins, Cary Freedom 32 DK Triskelion 192 207 183 6 12 0 0 0 0 0 0 Barrington Yacht Club 4/30/2018 Published
12454 Diana Kryston Dehler 34 Truancy 105 122 105 0 0 0 0 0 -6 0 0 Bristol Yacht Club 4/30/2018 Published
12452 Lima, Jr. George C. Ranger 26 MK2 Twice a Day 192 207 189 1 1 0 -4 0 0 0 6 Bristol 4/30/2018 Published
12221 McClintock, Moose S2 7.9 Two Dogs 182 209 177 6 12 0 0 -4 0 0 0 Sail Newport 4/30/2018 Published
12557 Todd Caspersen Freedom 32 SD TY 192 207 189 6 12 0 0 0 0 -3 0 TYC 4/30/2018 Published
12288 Turner, Mac Valiant 32 TYCHE 207 227 189 6 12 0 0 9 0 0 0 Ram Island Yacht Club 4/30/2018 Published
12185 Bert Barrett Jeanneau Sunfast 3200 Upstart 93 114 93 0 0 0 0 0 0 0 0 BPYC 4/30/2018 Published
12243 Brooke Mastrorio J/109 ODR Ursa 75 94 75 0 0 0 0 0 0 0 0 4/30/2018 Published
12244 Brooke Mastrorio J/109 Ursa 72 85 75 -3 -9 0 0 0 0 0 4/30/2018 Published

Pages